Mullan, ID (83846)

3:48 AM PDT on May 27, 2015 (GMT -0700)
ITD | | Change Station
CLOSE
Current Station
Personal Weather Station
Location: Wallace, ID
Elevation: 2791 ft
Nearby Weather Stations

Elev 2791 ft 47.47 °N, 115.91 °W | Updated 33 minutes ago

Partly Cloudy
Partly Cloudy
43 °F
Feels Like 43 °F
N
1
Wind Variable Wind from East
Gusts 2.0 mph

Today
High -- | Low -- °F
--% Chance of Precip.
Yesterday
High -- | Low -- °F
Precip. -- in
4:53 AM 8:27 PM
Waxing Gibbous, 66% visible
Pressure 30.00 in
Visibility 10.0 miles
Clouds Clear
Windchill 43 °F
Dew Point 42 °F
Humidity 96%
Rainfall in
Snow Depth Not available.
UV 0 out of 12
Pollen 7.60 out of 12
Air Quality Not available.
Flu Activity Sporadic
METAR KCOE 271035Z AUTO 08003KT 10SM CLR 07/05 A3000 RMK AO1

More Conditions Fewer Conditions

Pressure 30.00 in
Visibility 10.0 miles
Clouds Clear
Windchill 43 °F
Dew Point 42 °F
Humidity 96%
Rainfall in
Snow Depth Not available.
UV 0 out of 12
Pollen 7.60 out of 12
Air Quality Not available.
Flu Activity Sporadic
METAR KCOE 271035Z AUTO 08003KT 10SM CLR 07/05 A3000 RMK AO1

More Conditions Fewer Conditions

10-Day Weather Forecast

Almanac

Astronomy

May. 27, 2015 Rise Set
Actual Time
Civil Twilight
Nautical Twilight
Astronomical Twilight
Moon
Length of Visible Light
Length of Day
Tomorrow will be .
, % of the Moon is Illuminated

Today's Extremes

State Highs State Lows

Community

WunderPhotos

Upload Photos

1,824,637 photos uploaded!

WunderBlogs® & News

Nearby

Air Quality

  Air Quality AQ Index Pollutant
Not available.

Snow Depth

Station Depth Elevation

Earthquake Activity

City Distance Mag. Time & Date
Minimum magnitude displayed is 2.5.

Coastal Water Temperatures

Place Temperature

Stations

Nearby Weather Stations

Station Location Temp. Windchill Dew Point Humidity Wind Precip. Elev Updated Type